sensor_id;sensor_type;location;lat;lon;timestamp;P1;durP1;ratioP1;P2;durP2;ratioP2
29546;SDS011;40782;47.264;11.330;2022-08-30T00:00:35;11.45;;;9.10;;
29546;SDS011;40782;47.264;11.330;2022-08-30T00:03:20;9.63;;;8.63;;
29546;SDS011;40782;47.264;11.330;2022-08-30T00:05:47;8.50;;;7.70;;
29546;SDS011;40782;47.264;11.330;2022-08-30T00:08:14;9.68;;;8.00;;
29546;SDS011;40782;47.264;11.330;2022-08-30T00:10:43;8.70;;;7.85;;
29546;SDS011;40782;47.264;11.330;2022-08-30T00:13:12;8.68;;;7.80;;
29546;SDS011;40782;47.264;11.330;2022-08-30T00:15:40;8.32;;;7.53;;
29546;SDS011;40782;47.264;11.330;2022-08-30T00:18:08;8.93;;;8.05;;
29546;SDS011;40782;47.264;11.330;2022-08-30T00:20:36;8.63;;;7.80;;
29546;SDS011;40782;47.264;11.330;2022-08-30T00:23:04;8.48;;;7.60;;
29546;SDS011;40782;47.264;11.330;2022-08-30T00:25:32;9.65;;;7.97;;
29546;SDS011;40782;47.264;11.330;2022-08-30T00:27:59;8.68;;;7.78;;
29546;SDS011;40782;47.264;11.330;2022-08-30T00:30:28;9.30;;;8.10;;
29546;SDS011;40782;47.264;11.330;2022-08-30T00:32:55;8.73;;;7.82;;
29546;SDS011;40782;47.264;11.330;2022-08-30T00:35:23;8.68;;;7.80;;
29546;SDS011;40782;47.264;11.330;2022-08-30T00:37:50;8.75;;;7.95;;
29546;SDS011;40782;47.264;11.330;2022-08-30T00:40:18;8.70;;;7.90;;
29546;SDS011;40782;47.264;11.330;2022-08-30T00:42:46;8.60;;;7.80;;
29546;SDS011;40782;47.264;11.330;2022-08-30T00:45:15;8.63;;;7.78;;
29546;SDS011;40782;47.264;11.330;2022-08-30T00:47:46;8.35;;;7.55;;
29546;SDS011;40782;47.264;11.330;2022-08-30T00:50:15;8.57;;;7.78;;
29546;SDS011;40782;47.264;11.330;2022-08-30T00:52:44;8.55;;;7.63;;
29546;SDS011;40782;47.264;11.330;2022-08-30T00:55:16;8.15;;;7.38;;
29546;SDS011;40782;47.264;11.330;2022-08-30T00:57:44;8.35;;;7.50;;
29546;SDS011;40782;47.264;11.330;2022-08-30T01:00:14;8.88;;;7.55;;
29546;SDS011;40782;47.264;11.330;2022-08-30T01:02:42;9.15;;;7.45;;
29546;SDS011;40782;47.264;11.330;2022-08-30T01:05:11;8.38;;;7.45;;
29546;SDS011;40782;47.264;11.330;2022-08-30T01:07:39;7.72;;;6.93;;
29546;SDS011;40782;47.264;11.330;2022-08-30T01:10:08;8.07;;;7.28;;
29546;SDS011;40782;47.264;11.330;2022-08-30T01:12:38;7.22;;;6.63;;
29546;SDS011;40782;47.264;11.330;2022-08-30T01:15:07;7.47;;;6.90;;
29546;SDS011;40782;47.264;11.330;2022-08-30T01:17:37;7.30;;;6.50;;
29546;SDS011;40782;47.264;11.330;2022-08-30T01:20:06;13.68;;;7.07;;
29546;SDS011;40782;47.264;11.330;2022-08-30T01:22:38;8.93;;;7.60;;
29546;SDS011;40782;47.264;11.330;2022-08-30T01:25:13;8.43;;;7.50;;
29546;SDS011;40782;47.264;11.330;2022-08-30T01:27:46;8.00;;;7.30;;
29546;SDS011;40782;47.264;11.330;2022-08-30T01:30:18;8.35;;;7.55;;
29546;SDS011;40782;47.264;11.330;2022-08-30T01:32:48;10.60;;;8.43;;
29546;SDS011;40782;47.264;11.330;2022-08-30T01:35:21;8.98;;;8.18;;
29546;SDS011;40782;47.264;11.330;2022-08-30T01:37:49;8.40;;;7.68;;
29546;SDS011;40782;47.264;11.330;2022-08-30T01:40:18;11.18;;;7.85;;
29546;SDS011;40782;47.264;11.330;2022-08-30T01:42:45;8.20;;;7.50;;
29546;SDS011;40782;47.264;11.330;2022-08-30T01:45:13;10.77;;;8.70;;
29546;SDS011;40782;47.264;11.330;2022-08-30T01:47:40;10.10;;;8.23;;
29546;SDS011;40782;47.264;11.330;2022-08-30T01:50:08;9.43;;;8.52;;
29546;SDS011;40782;47.264;11.330;2022-08-30T01:52:36;9.40;;;8.48;;
29546;SDS011;40782;47.264;11.330;2022-08-30T01:55:03;9.65;;;8.27;;
29546;SDS011;40782;47.264;11.330;2022-08-30T01:57:33;9.32;;;8.43;;
29546;SDS011;40782;47.264;11.330;2022-08-30T02:00:03;10.55;;;8.43;;
29546;SDS011;40782;47.264;11.330;2022-08-30T02:02:31;9.98;;;9.00;;
29546;SDS011;40782;47.264;11.330;2022-08-30T02:04:58;9.90;;;8.90;;
29546;SDS011;40782;47.264;11.330;2022-08-30T02:07:25;11.40;;;10.30;;
29546;SDS011;40782;47.264;11.330;2022-08-30T02:09:53;10.70;;;9.20;;
29546;SDS011;40782;47.264;11.330;2022-08-30T02:12:20;11.45;;;9.63;;
29546;SDS011;40782;47.264;11.330;2022-08-30T02:14:49;10.05;;;8.77;;
29546;SDS011;40782;47.264;11.330;2022-08-30T02:17:16;10.35;;;8.82;;
29546;SDS011;40782;47.264;11.330;2022-08-30T02:19:44;10.85;;;9.52;;
29546;SDS011;40782;47.264;11.330;2022-08-30T02:22:11;10.40;;;9.40;;
29546;SDS011;40782;47.264;11.330;2022-08-30T02:24:38;10.75;;;9.70;;
29546;SDS011;40782;47.264;11.330;2022-08-30T02:27:06;9.68;;;8.88;;
29546;SDS011;40782;47.264;11.330;2022-08-30T02:29:33;14.57;;;9.45;;
29546;SDS011;40782;47.264;11.330;2022-08-30T02:32:02;9.77;;;8.88;;
29546;SDS011;40782;47.264;11.330;2022-08-30T02:34:29;12.50;;;9.35;;
29546;SDS011;40782;47.264;11.330;2022-08-30T02:36:57;9.68;;;8.68;;
29546;SDS011;40782;47.264;11.330;2022-08-30T02:39:25;9.05;;;8.25;;
29546;SDS011;40782;47.264;11.330;2022-08-30T02:41:52;9.40;;;7.95;;
29546;SDS011;40782;47.264;11.330;2022-08-30T02:44:19;9.25;;;8.50;;
29546;SDS011;40782;47.264;11.330;2022-08-30T02:46:47;11.20;;;10.00;;
29546;SDS011;40782;47.264;11.330;2022-08-30T02:49:15;10.30;;;9.07;;
29546;SDS011;40782;47.264;11.330;2022-08-30T02:51:43;10.13;;;9.13;;
29546;SDS011;40782;47.264;11.330;2022-08-30T02:54:10;10.50;;;9.48;;
29546;SDS011;40782;47.264;11.330;2022-08-30T02:56:39;11.38;;;10.25;;
29546;SDS011;40782;47.264;11.330;2022-08-30T02:59:07;10.68;;;9.68;;
29546;SDS011;40782;47.264;11.330;2022-08-30T03:01:34;10.20;;;9.20;;
29546;SDS011;40782;47.264;11.330;2022-08-30T03:04:03;10.60;;;9.60;;
29546;SDS011;40782;47.264;11.330;2022-08-30T03:06:32;10.68;;;9.68;;
29546;SDS011;40782;47.264;11.330;2022-08-30T03:08:59;9.70;;;8.77;;
29546;SDS011;40782;47.264;11.330;2022-08-30T03:11:26;9.85;;;8.80;;
29546;SDS011;40782;47.264;11.330;2022-08-30T03:13:54;9.27;;;8.45;;
29546;SDS011;40782;47.264;11.330;2022-08-30T03:16:21;9.35;;;8.55;;
29546;SDS011;40782;47.264;11.330;2022-08-30T03:18:48;9.98;;;8.98;;
29546;SDS011;40782;47.264;11.330;2022-08-30T03:21:16;9.30;;;8.50;;
29546;SDS011;40782;47.264;11.330;2022-08-30T03:23:44;9.73;;;8.77;;
29546;SDS011;40782;47.264;11.330;2022-08-30T03:26:12;10.63;;;9.52;;
29546;SDS011;40782;47.264;11.330;2022-08-30T03:28:39;12.35;;;9.35;;
29546;SDS011;40782;47.264;11.330;2022-08-30T03:31:07;11.02;;;9.15;;
29546;SDS011;40782;47.264;11.330;2022-08-30T03:33:36;9.30;;;8.40;;
29546;SDS011;40782;47.264;11.330;2022-08-30T03:36:05;9.75;;;8.75;;
29546;SDS011;40782;47.264;11.330;2022-08-30T03:38:32;9.77;;;8.88;;
29546;SDS011;40782;47.264;11.330;2022-08-30T03:41:01;12.18;;;9.45;;
29546;SDS011;40782;47.264;11.330;2022-08-30T03:43:30;10.93;;;9.68;;
29546;SDS011;40782;47.264;11.330;2022-08-30T03:45:57;11.18;;;10.02;;
29546;SDS011;40782;47.264;11.330;2022-08-30T03:48:25;11.40;;;9.98;;
29546;SDS011;40782;47.264;11.330;2022-08-30T03:50:53;11.43;;;9.23;;
29546;SDS011;40782;47.264;11.330;2022-08-30T03:53:20;10.75;;;9.65;;
29546;SDS011;40782;47.264;11.330;2022-08-30T03:55:47;10.93;;;9.65;;
29546;SDS011;40782;47.264;11.330;2022-08-30T03:58:16;10.98;;;9.85;;
29546;SDS011;40782;47.264;11.330;2022-08-30T04:00:43;10.75;;;9.75;;
29546;SDS011;40782;47.264;11.330;2022-08-30T04:03:10;10.25;;;9.27;;
29546;SDS011;40782;47.264;11.330;2022-08-30T04:05:37;13.82;;;10.32;;
29546;SDS011;40782;47.264;11.330;2022-08-30T04:08:05;10.73;;;9.65;;
29546;SDS011;40782;47.264;11.330;2022-08-30T04:10:32;11.18;;;9.65;;
29546;SDS011;40782;47.264;11.330;2022-08-30T04:13:00;11.20;;;9.75;;
29546;SDS011;40782;47.264;11.330;2022-08-30T04:15:28;12.52;;;9.90;;
29546;SDS011;40782;47.264;11.330;2022-08-30T04:17:55;11.15;;;9.93;;
29546;SDS011;40782;47.264;11.330;2022-08-30T04:20:22;11.00;;;10.00;;
29546;SDS011;40782;47.264;11.330;2022-08-30T04:22:49;10.80;;;9.80;;
29546;SDS011;40782;47.264;11.330;2022-08-30T04:25:16;11.07;;;9.98;;
29546;SDS011;40782;47.264;11.330;2022-08-30T04:27:44;11.32;;;9.38;;
29546;SDS011;40782;47.264;11.330;2022-08-30T04:30:12;10.45;;;9.45;;
29546;SDS011;40782;47.264;11.330;2022-08-30T04:32:42;9.98;;;8.98;;
29546;SDS011;40782;47.264;11.330;2022-08-30T04:35:11;10.45;;;9.45;;
29546;SDS011;40782;47.264;11.330;2022-08-30T04:37:39;10.32;;;9.32;;
29546;SDS011;40782;47.264;11.330;2022-08-30T04:40:07;11.02;;;9.85;;
29546;SDS011;40782;47.264;11.330;2022-08-30T04:42:35;10.95;;;9.68;;
29546;SDS011;40782;47.264;11.330;2022-08-30T04:45:04;10.60;;;9.52;;
29546;SDS011;40782;47.264;11.330;2022-08-30T04:47:32;11.02;;;9.88;;
29546;SDS011;40782;47.264;11.330;2022-08-30T04:50:01;11.20;;;10.10;;
29546;SDS011;40782;47.264;11.330;2022-08-30T04:52:28;12.45;;;11.15;;
29546;SDS011;40782;47.264;11.330;2022-08-30T04:54:56;11.63;;;10.15;;
29546;SDS011;40782;47.264;11.330;2022-08-30T04:57:24;11.95;;;10.60;;
29546;SDS011;40782;47.264;11.330;2022-08-30T04:59:53;13.70;;;10.45;;
29546;SDS011;40782;47.264;11.330;2022-08-30T05:02:20;16.55;;;10.77;;
29546;SDS011;40782;47.264;11.330;2022-08-30T05:04:48;12.25;;;10.18;;
29546;SDS011;40782;47.264;11.330;2022-08-30T05:07:34;11.23;;;10.07;;
29546;SDS011;40782;47.264;11.330;2022-08-30T05:10:03;10.73;;;9.38;;
29546;SDS011;40782;47.264;11.330;2022-08-30T05:12:31;12.45;;;11.10;;
29546;SDS011;40782;47.264;11.330;2022-08-30T05:14:58;11.85;;;10.57;;
29546;SDS011;40782;47.264;11.330;2022-08-30T05:17:26;20.10;;;10.40;;
29546;SDS011;40782;47.264;11.330;2022-08-30T05:19:53;17.40;;;11.32;;
29546;SDS011;40782;47.264;11.330;2022-08-30T05:22:20;22.60;;;11.27;;
29546;SDS011;40782;47.264;11.330;2022-08-30T05:24:48;16.20;;;11.02;;
29546;SDS011;40782;47.264;11.330;2022-08-30T05:27:15;13.50;;;10.50;;
29546;SDS011;40782;47.264;11.330;2022-08-30T05:29:42;14.13;;;10.77;;
29546;SDS011;40782;47.264;11.330;2022-08-30T05:32:10;12.45;;;10.63;;
29546;SDS011;40782;47.264;11.330;2022-08-30T05:34:37;11.23;;;10.02;;
29546;SDS011;40782;47.264;11.330;2022-08-30T05:37:04;10.80;;;9.70;;
29546;SDS011;40782;47.264;11.330;2022-08-30T05:39:32;10.95;;;9.50;;
29546;SDS011;40782;47.264;11.330;2022-08-30T05:42:00;11.50;;;9.90;;
29546;SDS011;40782;47.264;11.330;2022-08-30T05:44:27;12.63;;;9.82;;
29546;SDS011;40782;47.264;11.330;2022-08-30T05:46:54;12.60;;;10.18;;
29546;SDS011;40782;47.264;11.330;2022-08-30T05:49:21;14.88;;;9.82;;
29546;SDS011;40782;47.264;11.330;2022-08-30T05:51:48;17.80;;;9.80;;
29546;SDS011;40782;47.264;11.330;2022-08-30T05:54:16;13.52;;;10.35;;
29546;SDS011;40782;47.264;11.330;2022-08-30T05:56:43;11.95;;;9.40;;
29546;SDS011;40782;47.264;11.330;2022-08-30T05:59:12;12.07;;;9.55;;
29546;SDS011;40782;47.264;11.330;2022-08-30T06:01:41;11.10;;;9.77;;
29546;SDS011;40782;47.264;11.330;2022-08-30T06:04:10;11.23;;;10.00;;
29546;SDS011;40782;47.264;11.330;2022-08-30T06:06:38;11.25;;;10.07;;
29546;SDS011;40782;47.264;11.330;2022-08-30T06:09:08;12.43;;;11.10;;
29546;SDS011;40782;47.264;11.330;2022-08-30T06:11:36;11.25;;;10.13;;
29546;SDS011;40782;47.264;11.330;2022-08-30T06:14:04;12.20;;;10.93;;
29546;SDS011;40782;47.264;11.330;2022-08-30T06:16:34;13.55;;;12.07;;
29546;SDS011;40782;47.264;11.330;2022-08-30T06:19:03;15.10;;;13.07;;
29546;SDS011;40782;47.264;11.330;2022-08-30T06:21:33;14.57;;;11.63;;
29546;SDS011;40782;47.264;11.330;2022-08-30T06:24:01;15.15;;;12.55;;
29546;SDS011;40782;47.264;11.330;2022-08-30T06:26:29;14.18;;;12.45;;
29546;SDS011;40782;47.264;11.330;2022-08-30T06:28:57;16.20;;;13.13;;
29546;SDS011;40782;47.264;11.330;2022-08-30T06:31:25;12.35;;;11.10;;
29546;SDS011;40782;47.264;11.330;2022-08-30T06:33:53;12.48;;;10.98;;
29546;SDS011;40782;47.264;11.330;2022-08-30T06:36:22;13.88;;;11.25;;
29546;SDS011;40782;47.264;11.330;2022-08-30T06:38:50;14.05;;;12.52;;
29546;SDS011;40782;47.264;11.330;2022-08-30T06:41:20;12.45;;;11.15;;
29546;SDS011;40782;47.264;11.330;2022-08-30T06:43:49;14.57;;;11.68;;
29546;SDS011;40782;47.264;11.330;2022-08-30T06:46:17;14.18;;;12.20;;
29546;SDS011;40782;47.264;11.330;2022-08-30T06:48:45;16.58;;;12.80;;
29546;SDS011;40782;47.264;11.330;2022-08-30T06:51:14;17.67;;;11.48;;
29546;SDS011;40782;47.264;11.330;2022-08-30T06:53:46;12.93;;;11.57;;
29546;SDS011;40782;47.264;11.330;2022-08-30T06:56:14;15.38;;;10.63;;
29546;SDS011;40782;47.264;11.330;2022-08-30T06:58:41;13.13;;;11.80;;
29546;SDS011;40782;47.264;11.330;2022-08-30T07:01:10;13.35;;;11.35;;
29546;SDS011;40782;47.264;11.330;2022-08-30T07:03:38;13.13;;;11.82;;
29546;SDS011;40782;47.264;11.330;2022-08-30T07:06:05;12.75;;;11.45;;
29546;SDS011;40782;47.264;11.330;2022-08-30T07:08:34;13.85;;;10.93;;
29546;SDS011;40782;47.264;11.330;2022-08-30T07:11:03;12.60;;;11.32;;
29546;SDS011;40782;47.264;11.330;2022-08-30T07:13:31;12.63;;;10.68;;
29546;SDS011;40782;47.264;11.330;2022-08-30T07:15:59;11.52;;;10.52;;
29546;SDS011;40782;47.264;11.330;2022-08-30T07:18:26;16.00;;;10.43;;
29546;SDS011;40782;47.264;11.330;2022-08-30T07:21:12;17.08;;;11.57;;
29546;SDS011;40782;47.264;11.330;2022-08-30T07:23:42;11.55;;;10.45;;
29546;SDS011;40782;47.264;11.330;2022-08-30T07:26:13;11.18;;;10.18;;
29546;SDS011;40782;47.264;11.330;2022-08-30T07:28:42;12.32;;;11.07;;
29546;SDS011;40782;47.264;11.330;2022-08-30T07:31:11;11.88;;;10.57;;
29546;SDS011;40782;47.264;11.330;2022-08-30T07:33:39;12.88;;;11.48;;
29546;SDS011;40782;47.264;11.330;2022-08-30T07:36:07;16.15;;;11.95;;
29546;SDS011;40782;47.264;11.330;2022-08-30T07:38:35;12.18;;;11.05;;
29546;SDS011;40782;47.264;11.330;2022-08-30T07:41:04;12.07;;;10.88;;
29546;SDS011;40782;47.264;11.330;2022-08-30T07:43:32;10.90;;;9.80;;
29546;SDS011;40782;47.264;11.330;2022-08-30T07:46:00;11.40;;;10.30;;
29546;SDS011;40782;47.264;11.330;2022-08-30T07:48:28;13.20;;;10.65;;
29546;SDS011;40782;47.264;11.330;2022-08-30T07:50:56;9.80;;;8.80;;
29546;SDS011;40782;47.264;11.330;2022-08-30T07:53:23;10.95;;;9.43;;
29546;SDS011;40782;47.264;11.330;2022-08-30T07:55:50;9.65;;;8.70;;
29546;SDS011;40782;47.264;11.330;2022-08-30T07:58:19;10.20;;;8.98;;
29546;SDS011;40782;47.264;11.330;2022-08-30T08:00:46;9.02;;;8.13;;
29546;SDS011;40782;47.264;11.330;2022-08-30T08:03:13;12.68;;;8.70;;
29546;SDS011;40782;47.264;11.330;2022-08-30T08:05:42;9.70;;;8.82;;
29546;SDS011;40782;47.264;11.330;2022-08-30T08:08:10;10.07;;;9.10;;
29546;SDS011;40782;47.264;11.330;2022-08-30T08:10:39;9.93;;;8.93;;
29546;SDS011;40782;47.264;11.330;2022-08-30T08:13:07;9.13;;;8.23;;
29546;SDS011;40782;47.264;11.330;2022-08-30T08:15:36;13.38;;;8.85;;
29546;SDS011;40782;47.264;11.330;2022-08-30T08:18:04;10.65;;;8.88;;
29546;SDS011;40782;47.264;11.330;2022-08-30T08:20:32;8.75;;;7.90;;
29546;SDS011;40782;47.264;11.330;2022-08-30T08:23:00;8.85;;;7.95;;
29546;SDS011;40782;47.264;11.330;2022-08-30T08:25:28;9.10;;;8.20;;
29546;SDS011;40782;47.264;11.330;2022-08-30T08:27:55;8.20;;;7.40;;
29546;SDS011;40782;47.264;11.330;2022-08-30T08:30:22;8.18;;;7.38;;
29546;SDS011;40782;47.264;11.330;2022-08-30T08:32:51;11.10;;;7.80;;
29546;SDS011;40782;47.264;11.330;2022-08-30T08:35:18;8.85;;;7.95;;
29546;SDS011;40782;47.264;11.330;2022-08-30T08:37:45;8.35;;;7.55;;
29546;SDS011;40782;47.264;11.330;2022-08-30T08:40:13;8.48;;;7.68;;
29546;SDS011;40782;47.264;11.330;2022-08-30T08:45:33;9.48;;;8.38;;
29546;SDS011;40782;47.264;11.330;2022-08-30T08:48:10;8.52;;;7.82;;
29546;SDS011;40782;47.264;11.330;2022-08-30T08:50:42;9.52;;;8.52;;
29546;SDS011;40782;47.264;11.330;2022-08-30T08:53:27;8.57;;;7.80;;
29546;SDS011;40782;47.264;11.330;2022-08-30T08:56:03;11.30;;;8.05;;
29546;SDS011;40782;47.264;11.330;2022-08-30T08:58:34;8.60;;;7.68;;
29546;SDS011;40782;47.264;11.330;2022-08-30T09:01:10;8.55;;;7.70;;
29546;SDS011;40782;47.264;11.330;2022-08-30T09:03:40;8.73;;;7.93;;
29546;SDS011;40782;47.264;11.330;2022-08-30T09:06:12;8.48;;;7.63;;
29546;SDS011;40782;47.264;11.330;2022-08-30T09:08:52;7.90;;;7.10;;
29546;SDS011;40782;47.264;11.330;2022-08-30T09:11:21;8.32;;;7.40;;
29546;SDS011;40782;47.264;11.330;2022-08-30T09:13:50;10.02;;;8.77;;
29546;SDS011;40782;47.264;11.330;2022-08-30T09:22:11;10.18;;;9.07;;
29546;SDS011;40782;47.264;11.330;2022-08-30T09:24:47;9.70;;;8.35;;
29546;SDS011;40782;47.264;11.330;2022-08-30T09:27:20;8.95;;;8.15;;
29546;SDS011;40782;47.264;11.330;2022-08-30T09:29:54;8.93;;;8.15;;
29546;SDS011;40782;47.264;11.330;2022-08-30T09:32:28;11.20;;;9.10;;
29546;SDS011;40782;47.264;11.330;2022-08-30T09:35:03;9.73;;;8.82;;
29546;SDS011;40782;47.264;11.330;2022-08-30T09:37:35;9.30;;;8.40;;
29546;SDS011;40782;47.264;11.330;2022-08-30T09:40:08;8.68;;;7.97;;
29546;SDS011;40782;47.264;11.330;2022-08-30T09:42:39;8.35;;;7.63;;
29546;SDS011;40782;47.264;11.330;2022-08-30T09:45:10;7.88;;;7.18;;
29546;SDS011;40782;47.264;11.330;2022-08-30T09:47:45;7.95;;;7.28;;
29546;SDS011;40782;47.264;11.330;2022-08-30T09:50:14;8.60;;;7.93;;
29546;SDS011;40782;47.264;11.330;2022-08-30T09:52:50;12.65;;;8.45;;
29546;SDS011;40782;47.264;11.330;2022-08-30T09:55:28;8.88;;;7.90;;
29546;SDS011;40782;47.264;11.330;2022-08-30T09:58:08;8.40;;;7.57;;
29546;SDS011;40782;47.264;11.330;2022-08-30T10:00:44;7.35;;;6.75;;
29546;SDS011;40782;47.264;11.330;2022-08-30T10:03:19;8.35;;;7.53;;
29546;SDS011;40782;47.264;11.330;2022-08-30T10:05:54;7.75;;;7.13;;
29546;SDS011;40782;47.264;11.330;2022-08-30T10:08:30;8.23;;;7.53;;
29546;SDS011;40782;47.264;11.330;2022-08-30T10:11:04;8.98;;;7.63;;
29546;SDS011;40782;47.264;11.330;2022-08-30T10:13:37;7.95;;;7.25;;
29546;SDS011;40782;47.264;11.330;2022-08-30T10:16:17;8.63;;;7.10;;
29546;SDS011;40782;47.264;11.330;2022-08-30T10:18:55;8.20;;;7.32;;
29546;SDS011;40782;47.264;11.330;2022-08-30T10:21:30;8.13;;;7.40;;
29546;SDS011;40782;47.264;11.330;2022-08-30T10:24:04;9.30;;;8.50;;
29546;SDS011;40782;47.264;11.330;2022-08-30T10:26:35;9.02;;;8.10;;
29546;SDS011;40782;47.264;11.330;2022-08-30T10:29:09;8.15;;;7.32;;
29546;SDS011;40782;47.264;11.330;2022-08-30T10:31:40;7.40;;;6.78;;
29546;SDS011;40782;47.264;11.330;2022-08-30T10:34:13;8.98;;;6.88;;
29546;SDS011;40782;47.264;11.330;2022-08-30T10:36:46;7.57;;;6.88;;
29546;SDS011;40782;47.264;11.330;2022-08-30T10:39:19;7.10;;;6.50;;
29546;SDS011;40782;47.264;11.330;2022-08-30T10:41:49;7.60;;;6.78;;
29546;SDS011;40782;47.264;11.330;2022-08-30T10:44:22;6.97;;;6.47;;
29546;SDS011;40782;47.264;11.330;2022-08-30T10:46:57;6.70;;;6.20;;
29546;SDS011;40782;47.264;11.330;2022-08-30T10:49:35;9.20;;;6.77;;
29546;SDS011;40782;47.264;11.330;2022-08-30T10:52:10;8.90;;;7.57;;
29546;SDS011;40782;47.264;11.330;2022-08-30T10:54:46;7.05;;;6.07;;
29546;SDS011;40782;47.264;11.330;2022-08-30T10:57:16;6.43;;;5.80;;
29546;SDS011;40782;47.264;11.330;2022-08-30T10:59:45;5.85;;;5.32;;
29546;SDS011;40782;47.264;11.330;2022-08-30T11:02:28;6.32;;;5.80;;
29546;SDS011;40782;47.264;11.330;2022-08-30T11:05:22;6.20;;;5.63;;
29546;SDS011;40782;47.264;11.330;2022-08-30T11:10:48;6.28;;;5.68;;
29546;SDS011;40782;47.264;11.330;2022-08-30T11:13:24;6.45;;;5.85;;
29546;SDS011;40782;47.264;11.330;2022-08-30T11:15:55;6.18;;;5.68;;
29546;SDS011;40782;47.264;11.330;2022-08-30T11:18:27;5.85;;;5.45;;
29546;SDS011;40782;47.264;11.330;2022-08-30T11:24:03;6.22;;;5.72;;
29546;SDS011;40782;47.264;11.330;2022-08-30T11:26:50;8.50;;;5.50;;
29546;SDS011;40782;47.264;11.330;2022-08-30T11:31:57;6.68;;;4.97;;
29546;SDS011;40782;47.264;11.330;2022-08-30T11:37:31;7.13;;;5.13;;
29546;SDS011;40782;47.264;11.330;2022-08-30T11:40:03;6.32;;;5.82;;
29546;SDS011;40782;47.264;11.330;2022-08-30T11:42:33;5.18;;;4.65;;
29546;SDS011;40782;47.264;11.330;2022-08-30T11:48:07;5.55;;;4.72;;
29546;SDS011;40782;47.264;11.330;2022-08-30T11:51:06;5.63;;;5.13;;
29546;SDS011;40782;47.264;11.330;2022-08-30T11:53:40;4.95;;;4.55;;
29546;SDS011;40782;47.264;11.330;2022-08-30T11:56:17;4.60;;;4.30;;
29546;SDS011;40782;47.264;11.330;2022-08-30T11:58:48;5.60;;;4.90;;
29546;SDS011;40782;47.264;11.330;2022-08-30T12:01:22;4.50;;;4.20;;
29546;SDS011;40782;47.264;11.330;2022-08-30T12:04:02;5.38;;;4.88;;
29546;SDS011;40782;47.264;11.330;2022-08-30T12:06:48;4.93;;;4.07;;
29546;SDS011;40782;47.264;11.330;2022-08-30T12:18:23;4.50;;;4.20;;
29546;SDS011;40782;47.264;11.330;2022-08-30T12:21:07;5.50;;;4.32;;
29546;SDS011;40782;47.264;11.330;2022-08-30T12:23:42;4.40;;;3.88;;
29546;SDS011;40782;47.264;11.330;2022-08-30T12:26:16;4.28;;;3.90;;
29546;SDS011;40782;47.264;11.330;2022-08-30T12:28:47;4.40;;;4.00;;
29546;SDS011;40782;47.264;11.330;2022-08-30T12:31:17;4.07;;;3.78;;
29546;SDS011;40782;47.264;11.330;2022-08-30T12:33:47;4.55;;;4.15;;
29546;SDS011;40782;47.264;11.330;2022-08-30T12:36:32;4.03;;;3.72;;
29546;SDS011;40782;47.264;11.330;2022-08-30T12:39:08;3.78;;;3.35;;
29546;SDS011;40782;47.264;11.330;2022-08-30T12:41:37;3.88;;;3.58;;
29546;SDS011;40782;47.264;11.330;2022-08-30T12:44:07;6.72;;;3.35;;
29546;SDS011;40782;47.264;11.330;2022-08-30T12:46:39;3.38;;;3.08;;
29546;SDS011;40782;47.264;11.330;2022-08-30T12:49:07;3.80;;;3.50;;
29546;SDS011;40782;47.264;11.330;2022-08-30T12:51:36;3.47;;;3.28;;
29546;SDS011;40782;47.264;11.330;2022-08-30T12:54:08;3.83;;;3.35;;
29546;SDS011;40782;47.264;11.330;2022-08-30T12:56:45;3.50;;;3.30;;
29546;SDS011;40782;47.264;11.330;2022-08-30T12:59:39;4.10;;;3.70;;
29546;SDS011;40782;47.264;11.330;2022-08-30T13:02:15;3.40;;;3.20;;
29546;SDS011;40782;47.264;11.330;2022-08-30T13:04:44;3.70;;;3.40;;
29546;SDS011;40782;47.264;11.330;2022-08-30T13:07:23;3.42;;;3.22;;
29546;SDS011;40782;47.264;11.330;2022-08-30T13:09:58;3.50;;;3.20;;
29546;SDS011;40782;47.264;11.330;2022-08-30T13:12:32;3.85;;;3.40;;
29546;SDS011;40782;47.264;11.330;2022-08-30T13:15:11;3.70;;;3.50;;
29546;SDS011;40782;47.264;11.330;2022-08-30T13:17:42;3.55;;;3.30;;
29546;SDS011;40782;47.264;11.330;2022-08-30T13:20:19;3.30;;;3.05;;
29546;SDS011;40782;47.264;11.330;2022-08-30T13:23:02;3.42;;;3.22;;
29546;SDS011;40782;47.264;11.330;2022-08-30T13:25:31;4.00;;;3.75;;
29546;SDS011;40782;47.264;11.330;2022-08-30T13:27:59;3.60;;;3.40;;
29546;SDS011;40782;47.264;11.330;2022-08-30T13:30:29;3.63;;;3.42;;
29546;SDS011;40782;47.264;11.330;2022-08-30T13:32:56;3.35;;;3.20;;
29546;SDS011;40782;47.264;11.330;2022-08-30T13:35:25;3.60;;;3.30;;
29546;SDS011;40782;47.264;11.330;2022-08-30T13:37:53;4.00;;;3.70;;
29546;SDS011;40782;47.264;11.330;2022-08-30T13:40:21;4.30;;;3.90;;
29546;SDS011;40782;47.264;11.330;2022-08-30T13:42:48;3.58;;;3.38;;
29546;SDS011;40782;47.264;11.330;2022-08-30T13:45:16;3.78;;;3.58;;
29546;SDS011;40782;47.264;11.330;2022-08-30T13:47:47;3.33;;;3.10;;
29546;SDS011;40782;47.264;11.330;2022-08-30T13:50:15;5.00;;;3.83;;
29546;SDS011;40782;47.264;11.330;2022-08-30T13:52:43;4.20;;;3.90;;
29546;SDS011;40782;47.264;11.330;2022-08-30T13:55:10;3.97;;;3.78;;
29546;SDS011;40782;47.264;11.330;2022-08-30T13:57:39;3.60;;;3.40;;
29546;SDS011;40782;47.264;11.330;2022-08-30T14:00:07;4.07;;;3.67;;
29546;SDS011;40782;47.264;11.330;2022-08-30T14:02:36;4.15;;;3.80;;
29546;SDS011;40782;47.264;11.330;2022-08-30T14:05:05;3.72;;;3.42;;
29546;SDS011;40782;47.264;11.330;2022-08-30T14:07:32;3.58;;;3.35;;
29546;SDS011;40782;47.264;11.330;2022-08-30T14:09:59;4.70;;;3.55;;
29546;SDS011;40782;47.264;11.330;2022-08-30T14:12:26;4.65;;;3.67;;
29546;SDS011;40782;47.264;11.330;2022-08-30T14:14:53;3.80;;;3.60;;
29546;SDS011;40782;47.264;11.330;2022-08-30T14:17:21;3.45;;;3.10;;
29546;SDS011;40782;47.264;11.330;2022-08-30T14:19:53;3.50;;;3.20;;
29546;SDS011;40782;47.264;11.330;2022-08-30T14:22:22;4.40;;;3.95;;
29546;SDS011;40782;47.264;11.330;2022-08-30T14:24:49;3.60;;;3.30;;
29546;SDS011;40782;47.264;11.330;2022-08-30T14:27:18;3.58;;;3.28;;
29546;SDS011;40782;47.264;11.330;2022-08-30T14:29:45;3.88;;;3.67;;
29546;SDS011;40782;47.264;11.330;2022-08-30T14:32:14;4.15;;;3.65;;
29546;SDS011;40782;47.264;11.330;2022-08-30T14:34:41;3.60;;;3.30;;
29546;SDS011;40782;47.264;11.330;2022-08-30T14:37:09;3.97;;;3.60;;
29546;SDS011;40782;47.264;11.330;2022-08-30T14:39:37;3.78;;;3.58;;
29546;SDS011;40782;47.264;11.330;2022-08-30T14:42:05;7.53;;;6.93;;
29546;SDS011;40782;47.264;11.330;2022-08-30T14:44:32;6.57;;;5.97;;
29546;SDS011;40782;47.264;11.330;2022-08-30T14:47:01;5.53;;;5.13;;
29546;SDS011;40782;47.264;11.330;2022-08-30T14:49:29;33.67;;;30.35;;
29546;SDS011;40782;47.264;11.330;2022-08-30T14:51:57;7.75;;;7.10;;
29546;SDS011;40782;47.264;11.330;2022-08-30T14:54:26;13.13;;;12.07;;
29546;SDS011;40782;47.264;11.330;2022-08-30T14:56:56;9.15;;;8.45;;
29546;SDS011;40782;47.264;11.330;2022-08-30T14:59:24;7.85;;;7.20;;
29546;SDS011;40782;47.264;11.330;2022-08-30T15:01:51;10.85;;;9.85;;
29546;SDS011;40782;47.264;11.330;2022-08-30T15:04:19;8.20;;;7.43;;
29546;SDS011;40782;47.264;11.330;2022-08-30T15:06:47;10.27;;;8.15;;
29546;SDS011;40782;47.264;11.330;2022-08-30T15:09:15;5.30;;;4.97;;
29546;SDS011;40782;47.264;11.330;2022-08-30T15:11:44;5.35;;;4.95;;
29546;SDS011;40782;47.264;11.330;2022-08-30T15:14:13;5.43;;;5.03;;